createdAt,value
2022-10-26T00:01:48.432Z,4.15
2022-10-26T00:06:49.987Z,4.00
2022-10-26T00:11:52.614Z,3.90
2022-10-26T00:16:54.088Z,3.95
2022-10-26T00:21:55.637Z,3.15
2022-10-26T00:26:57.102Z,3.70
2022-10-26T00:31:58.670Z,2.90
2022-10-26T00:37:00.174Z,2.30
2022-10-26T00:42:01.628Z,2.42
2022-10-26T00:47:05.027Z,2.05
2022-10-26T00:52:08.813Z,2.25
2022-10-26T00:57:12.313Z,2.40
2022-10-26T01:02:13.853Z,2.30
2022-10-26T01:07:15.757Z,2.08
2022-10-26T01:12:17.281Z,1.80
2022-10-26T01:17:56.518Z,1.58
2022-10-26T01:23:02.770Z,2.10
2022-10-26T01:28:16.230Z,1.77
2022-10-26T01:33:31.043Z,1.58
2022-10-26T01:38:47.383Z,1.73
2022-10-26T01:43:55.303Z,1.92
2022-10-26T01:49:01.595Z,1.60
2022-10-26T01:54:03.133Z,1.85
2022-10-26T01:59:13.394Z,1.30
2022-10-26T02:04:51.968Z,1.65
2022-10-26T02:10:11.820Z,1.60
2022-10-26T02:15:33.765Z,1.40
2022-10-26T02:20:44.483Z,2.10
2022-10-26T02:25:53.308Z,1.67
2022-10-26T02:31:00.342Z,1.52
2022-10-26T02:36:05.174Z,1.75
2022-10-26T02:41:08.637Z,1.80
2022-10-26T02:46:15.205Z,1.30
2022-10-26T02:51:41.122Z,1.80
2022-10-26T02:56:58.026Z,1.13
2022-10-26T03:02:00.350Z,1.63
2022-10-26T03:07:02.008Z,1.58
2022-10-26T03:12:03.639Z,1.08
2022-10-26T03:17:05.118Z,1.40
2022-10-26T03:22:06.635Z,1.17
2022-10-26T03:27:08.124Z,1.20
2022-10-26T03:32:09.959Z,1.23
2022-10-26T03:37:11.571Z,1.52
2022-10-26T03:42:13.030Z,1.38
2022-10-26T03:47:14.602Z,1.40
2022-10-26T03:52:16.089Z,1.70
2022-10-26T03:57:42.807Z,1.50
2022-10-26T04:02:48.455Z,1.50
2022-10-26T04:07:58.442Z,1.40
2022-10-26T04:13:01.200Z,1.45
2022-10-26T04:18:03.132Z,1.30
2022-10-26T04:23:06.951Z,1.58
2022-10-26T04:28:12.878Z,1.38
2022-10-26T04:33:14.422Z,1.92
2022-10-26T04:38:15.888Z,1.52
2022-10-26T04:43:17.420Z,1.63
2022-10-26T04:48:19.040Z,1.55
2022-10-26T04:53:20.567Z,1.60
2022-10-26T04:58:22.005Z,1.73
2022-10-26T05:03:23.866Z,1.67
2022-10-26T05:08:27.148Z,1.80
2022-10-26T05:13:28.680Z,1.88
2022-10-26T05:18:30.255Z,1.95
2022-10-26T05:23:31.676Z,1.52
2022-10-26T05:28:33.168Z,1.83
2022-10-26T05:33:34.715Z,1.80
2022-10-26T05:38:36.221Z,1.85
2022-10-26T05:43:37.681Z,1.85
2022-10-26T05:48:39.107Z,2.00
2022-10-26T05:53:40.588Z,1.42
2022-10-26T05:58:42.272Z,1.88
2022-10-26T06:03:58.789Z,1.90
2022-10-26T06:09:00.567Z,2.50
2022-10-26T06:14:03.375Z,2.13
2022-10-26T06:19:16.921Z,2.35
2022-10-26T06:24:47.361Z,2.22
2022-10-26T06:30:12.568Z,2.08
2022-10-26T06:35:32.940Z,1.70
2022-10-26T06:40:37.792Z,1.50
2022-10-26T06:45:45.307Z,1.23
2022-10-26T06:50:52.027Z,1.27
2022-10-26T06:55:53.811Z,1.10
2022-10-26T07:00:56.464Z,1.02
2022-10-26T07:05:57.964Z,1.15
2022-10-26T07:10:59.502Z,1.17
2022-10-26T07:16:01.022Z,1.33
2022-10-26T07:21:02.480Z,1.20
2022-10-26T07:26:04.075Z,1.30
2022-10-26T07:31:05.682Z,1.08
2022-10-26T07:36:08.538Z,0.90
2022-10-26T07:41:11.076Z,1.00
2022-10-26T07:46:13.026Z,0.80
2022-10-26T07:51:14.753Z,1.20
2022-10-26T07:56:16.397Z,1.08
2022-10-26T08:01:18.097Z,1.15
2022-10-26T08:06:22.163Z,1.10
2022-10-26T08:11:23.608Z,1.17
2022-10-26T08:16:25.150Z,1.15
2022-10-26T08:21:36.573Z,1.15
2022-10-26T08:26:41.759Z,1.00
2022-10-26T08:31:43.430Z,1.02
2022-10-26T08:36:44.923Z,0.98
2022-10-26T08:41:52.701Z,1.15
2022-10-26T08:47:13.027Z,1.55
2022-10-26T08:52:19.215Z,1.33
2022-10-26T08:57:33.856Z,1.27
2022-10-26T09:02:35.339Z,1.48
2022-10-26T09:07:53.333Z,0.95
2022-10-26T09:13:01.660Z,1.50
2022-10-26T09:18:08.815Z,1.17
2022-10-26T09:23:38.063Z,1.42
2022-10-26T09:28:41.210Z,1.30
2022-10-26T09:33:42.711Z,1.25
2022-10-26T09:39:10.419Z,1.55
2022-10-26T09:44:20.909Z,1.35
2022-10-26T09:49:31.300Z,1.58
2022-10-26T09:54:32.820Z,1.35
2022-10-26T09:59:38.955Z,1.45
2022-10-26T10:04:47.060Z,1.25
2022-10-26T10:10:07.723Z,1.38
2022-10-26T10:15:35.693Z,1.27
2022-10-26T10:20:37.216Z,1.13
2022-10-26T10:25:40.055Z,1.35
2022-10-26T10:30:54.401Z,1.60
2022-10-26T10:35:55.911Z,1.50
2022-10-26T10:41:00.132Z,1.20
2022-10-26T10:46:01.773Z,1.30
2022-10-26T10:51:12.436Z,1.10
2022-10-26T10:56:28.846Z,1.10
2022-10-26T11:01:40.935Z,1.17
2022-10-26T11:06:44.537Z,0.95
2022-10-26T11:11:53.849Z,0.90
2022-10-26T11:21:58.892Z,1.15
2022-10-26T11:27:17.364Z,1.30
2022-10-26T11:32:31.094Z,1.10
2022-10-26T11:37:53.207Z,1.15
2022-10-26T11:43:03.963Z,1.05
2022-10-26T11:48:22.010Z,1.27
2022-10-26T11:53:39.918Z,1.00
2022-10-26T11:58:42.992Z,0.93
2022-10-26T12:03:50.491Z,1.00
2022-10-26T12:08:59.058Z,1.10
2022-10-26T12:14:09.372Z,1.40
2022-10-26T12:24:35.292Z,1.10
2022-10-26T12:29:46.567Z,1.00
2022-10-26T12:34:50.973Z,1.17
2022-10-26T12:39:52.505Z,1.42
2022-10-26T12:44:54.022Z,0.90
2022-10-26T12:50:01.967Z,0.77
2022-10-26T12:55:13.462Z,0.82
2022-10-26T13:00:21.775Z,0.82
2022-10-26T13:05:43.999Z,1.00
2022-10-26T13:11:20.604Z,0.80
2022-10-26T13:16:26.406Z,0.77
2022-10-26T13:21:28.215Z,0.82
2022-10-26T13:26:31.375Z,0.65
2022-10-26T13:31:32.962Z,0.85
2022-10-26T13:36:41.683Z,1.02
2022-10-26T13:41:46.096Z,1.00
2022-10-26T13:46:54.400Z,0.90
2022-10-26T13:52:00.211Z,1.00
2022-10-26T13:57:12.847Z,0.90
2022-10-26T14:02:24.973Z,2.22
2022-10-26T14:07:35.806Z,2.13
2022-10-26T14:12:38.367Z,2.20
2022-10-26T14:17:40.011Z,0.82
2022-10-26T14:22:41.577Z,1.23
2022-10-26T14:27:44.220Z,0.77
2022-10-26T14:32:45.791Z,1.38
2022-10-26T14:37:54.447Z,1.35
2022-10-26T14:42:58.952Z,1.10
2022-10-26T14:48:02.566Z,0.90
2022-10-26T15:00:00.906Z,1.00
2022-10-26T15:05:17.475Z,0.82
2022-10-26T15:10:37.500Z,0.63
2022-10-26T15:15:39.845Z,0.88
2022-10-26T15:20:48.290Z,0.98
2022-10-26T15:25:54.729Z,1.13
2022-10-26T15:31:11.301Z,0.95
2022-10-26T15:36:15.524Z,1.00
2022-10-26T15:41:23.940Z,0.77
2022-10-26T15:46:30.465Z,1.10
2022-10-26T15:51:32.589Z,1.08
2022-10-26T15:56:34.125Z,1.45
2022-10-26T16:01:35.668Z,0.77
2022-10-26T16:06:39.296Z,1.20
2022-10-26T16:11:40.829Z,0.80
2022-10-26T16:16:42.325Z,0.93
2022-10-26T16:21:43.937Z,1.08
2022-10-26T16:26:46.227Z,1.10
2022-10-26T16:31:48.926Z,1.15
2022-10-26T16:36:50.406Z,1.10
2022-10-26T16:41:52.360Z,1.80
2022-10-26T16:46:53.836Z,1.70
2022-10-26T16:51:57.463Z,1.70
2022-10-26T16:56:59.049Z,1.48
2022-10-26T17:02:00.818Z,1.63
2022-10-26T17:07:02.421Z,1.90
2022-10-26T17:12:04.621Z,1.80
2022-10-26T17:17:06.146Z,2.00
2022-10-26T17:22:09.765Z,2.10
2022-10-26T17:27:11.361Z,2.30
2022-10-26T17:32:16.418Z,1.60
2022-10-26T17:37:18.034Z,1.80
2022-10-26T17:42:19.647Z,1.30
2022-10-26T17:47:21.186Z,2.13
2022-10-26T17:52:24.687Z,2.00
2022-10-26T17:57:27.358Z,1.65
2022-10-26T18:02:29.076Z,1.90
2022-10-26T18:07:31.345Z,2.25
2022-10-26T18:12:32.946Z,2.70
2022-10-26T18:17:36.563Z,3.25
2022-10-26T18:22:38.223Z,2.45
2022-10-26T18:27:40.997Z,2.20
2022-10-26T18:32:42.528Z,2.30
2022-10-26T18:37:44.406Z,3.08
2022-10-26T18:42:46.084Z,3.00
2022-10-26T18:47:48.040Z,2.53
2022-10-26T18:52:49.994Z,2.42
2022-10-26T18:57:51.740Z,2.50
2022-10-26T19:02:53.960Z,2.40
2022-10-26T19:07:56.001Z,2.90
2022-10-26T19:12:57.815Z,2.92
2022-10-26T19:17:59.807Z,3.17
2022-10-26T19:23:01.405Z,3.10
2022-10-26T19:28:03.357Z,3.17
2022-10-26T19:33:05.096Z,3.28
2022-10-26T19:38:06.881Z,3.75
2022-10-26T19:43:10.376Z,2.88
2022-10-26T19:48:12.961Z,2.92
2022-10-26T19:53:17.285Z,2.42
2022-10-26T19:58:18.803Z,2.60
2022-10-26T20:03:20.552Z,2.15
2022-10-26T20:08:22.570Z,2.17
2022-10-26T20:13:24.328Z,2.20
2022-10-26T20:18:27.966Z,2.10
2022-10-26T20:23:29.435Z,1.70
2022-10-26T20:28:31.128Z,1.85
2022-10-26T20:33:32.528Z,2.70
2022-10-26T20:38:34.361Z,2.13
2022-10-26T20:43:38.828Z,2.85
2022-10-26T20:48:40.613Z,2.88
2022-10-26T20:53:47.936Z,2.50
2022-10-26T20:58:57.655Z,2.40
2022-10-26T21:04:02.358Z,2.53
2022-10-26T21:09:03.864Z,2.40
2022-10-26T21:14:06.292Z,2.05
2022-10-26T21:19:08.296Z,4.13
2022-10-26T21:24:09.864Z,2.90
2022-10-26T21:29:11.573Z,3.20
2022-10-26T21:34:13.253Z,2.22
2022-10-26T21:39:14.948Z,2.58
2022-10-26T21:44:32.764Z,2.40
2022-10-26T21:49:38.672Z,2.17
2022-10-26T21:54:40.157Z,2.08
2022-10-26T21:59:41.812Z,2.70
2022-10-26T22:04:43.301Z,2.15
2022-10-26T22:10:00.512Z,2.63
2022-10-26T22:15:06.785Z,2.22
2022-10-26T22:20:10.429Z,2.90
2022-10-26T22:25:11.858Z,2.58
2022-10-26T22:30:13.914Z,2.47
2022-10-26T22:35:28.954Z,2.92
2022-10-26T22:40:31.070Z,2.03
2022-10-26T22:45:32.539Z,2.28
2022-10-26T22:50:33.976Z,1.92
2022-10-26T22:55:35.428Z,2.17
2022-10-26T23:00:39.922Z,2.00
2022-10-26T23:05:48.654Z,2.17
2022-10-26T23:10:50.258Z,2.10
2022-10-26T23:16:13.497Z,1.83
2022-10-26T23:21:16.022Z,1.73
2022-10-26T23:26:21.016Z,1.38
2022-10-26T23:31:28.143Z,1.73
2022-10-26T23:36:34.104Z,1.60
2022-10-26T23:41:35.537Z,1.77
2022-10-26T23:46:37.111Z,1.65
2022-10-26T23:51:38.615Z,1.77
2022-10-26T23:56:40.158Z,1.77
